Mount Carmel, Kentucky
Current Conditions -  °F | °C
As of 10:55 PM on Tuesday 25 Nov 2014 (Local Time) from KFGX Reporting Station
Clear Clear  
Wind Chill: 27°   Ceiling: Unl
Heat Index: 34°   Visibility: 10mi
Dew Point: 29°   Wind: 8mph
Humidity: 81%   Direction: 20°NNE
Pressure: 30.16"   Gusts: NA
Location:  38.436°N, 83.6931°W
Report Text: KFGX 260355Z AUTO 02007KT 10SM CLR 01/M02 A3016 RMK AO2 T00121017
Loading
Personal Weather Stations






























Interactive Weather Map New forecast layout! Learn more

10-Day Weather Forecast

Advertisements
Track Severe Weather on mobile